Teton Village, Wyoming
Current Conditions -  °F | °C
As of 9:15 PM on Friday 19 Dec 2014 (Local Time) from KJAC Reporting Station
Broken Clouds Broken Clouds  
Wind Chill: 22°   Ceiling: 3300
Heat Index: 30°   Visibility: 10mi
Dew Point: 28°   Wind: 9mph
Humidity: 93%   Direction: 190°S
Pressure: 30.04"   Gusts: NA
Location:  43.59°N, 110.83°W
Report Text: KJAC 200415Z 19008KT 10SM FEW019 SCT027 BKN033 M01/M02 A3004 RMK AO1
Loading
Personal Weather Stations






























Interactive Weather Map New forecast layout! Learn more

10-Day Weather Forecast

Advertisements
Track Severe Weather on mobile